Time;durP1;ratioP1;P1;durP2;ratioP2;P2;SDS_P1;SDS_P2;PMS_P1;PMS_P2;Temp;Humidity;BMP_temperature;BMP_pressure;BME280_temperature;BME280_humidity;BME280_pressure;Samples;Min_cycle;Max_cycle;Signal;HPM_P1;HPM_P2
2023/12/28 00:00:39;;;;;;;2.70;2.50;;;;;;;5.03;80.49;95904.72;5012456;28;20566;-65
2023/12/28 00:03:05;;;;;;;7.67;7.20;;;;;;;4.91;81.82;95888.50;5011850;28;20659;-65
2023/12/28 00:05:31;;;;;;;4.43;3.07;;;;;;;5.23;82.67;95910.59;5012354;28;20204;-65
2023/12/28 00:07:57;;;;;;;2.70;2.50;;;;;;;5.30;82.23;95915.06;5012292;28;20949;-66
2023/12/28 00:10:27;;;;;;;1.00;1.00;;;;;;;5.53;81.55;95912.78;5012072;28;20220;-65
2023/12/28 00:12:53;;;;;;;1.23;1.23;;;;;;;5.52;81.55;95923.38;5011997;28;20208;-65
2023/12/28 00:15:18;;;;;;;0.60;0.60;;;;;;;5.49;79.24;95919.28;5012427;28;20184;-66
2023/12/28 00:17:44;;;;;;;0.90;0.90;;;;;;;5.32;78.29;95926.19;5011909;28;21031;-65
2023/12/28 00:20:10;;;;;;;1.07;1.07;;;;;;;5.15;78.46;95926.22;5011861;28;20563;-64
2023/12/28 00:22:37;;;;;;;0.50;0.50;;;;;;;5.13;78.83;95925.53;5012117;28;20165;-66
2023/12/28 00:25:06;;;;;;;0.80;0.80;;;;;;;5.08;79.78;95920.78;5011634;28;20244;-65
2023/12/28 00:27:33;;;;;;;0.70;0.70;;;;;;;4.82;80.15;95904.25;5011827;28;20656;-65
2023/12/28 00:29:59;;;;;;;0.70;0.70;;;;;;;4.96;79.98;95931.56;5012110;28;20172;-65
2023/12/28 00:32:25;;;;;;;0.50;0.50;;;;;;;4.89;79.20;95936.59;5011622;28;20267;-65
2023/12/28 00:34:50;;;;;;;9.37;3.33;;;;;;;4.85;79.62;95935.22;5011466;28;20337;-66
2023/12/28 00:37:16;;;;;;;0.40;0.40;;;;;;;4.67;80.79;95940.44;5011858;28;20552;-66
2023/12/28 00:39:41;;;;;;;0.50;0.50;;;;;;;4.65;80.66;95934.56;5004337;28;20181;-66
2023/12/28 00:42:07;;;;;;;3.17;3.07;;;;;;;4.60;80.48;95936.78;5007490;28;20950;-66
2023/12/28 00:44:32;;;;;;;1.37;1.30;;;;;;;4.48;80.10;95917.13;5011625;28;20270;-66
2023/12/28 00:46:58;;;;;;;7.33;4.93;;;;;;;4.48;80.70;95944.00;5011267;28;20267;-66
2023/12/28 00:49:23;;;;;;;1.77;1.73;;;;;;;4.42;80.24;95949.78;5011453;28;20168;-65
2023/12/28 00:51:49;;;;;;;0.50;0.50;;;;;;;4.32;81.15;95949.03;5011460;28;20660;-66
2023/12/28 00:54:14;;;;;;;7.83;7.10;;;;;;;4.34;81.05;95948.88;5011003;28;20544;-66
2023/12/28 00:56:39;;;;;;;0.50;0.50;;;;;;;4.36;81.56;95949.53;5011352;28;20160;-66
2023/12/28 00:59:05;;;;;;;0.50;0.50;;;;;;;4.22;81.90;95927.41;5011487;28;20183;-65
2023/12/28 01:01:30;;;;;;;0.50;0.50;;;;;;;4.09;82.00;95912.09;5010641;28;20219;-66
2023/12/28 01:03:56;;;;;;;8.20;4.77;;;;;;;4.36;81.27;95937.34;5010419;28;20179;-66
2023/12/28 01:06:22;;;;;;;1.80;1.73;;;;;;;4.35;81.81;95940.09;5001659;28;20180;-65
2023/12/28 01:08:47;;;;;;;1.10;1.10;;;;;;;4.44;81.46;95960.06;4992924;28;20299;-65
2023/12/28 01:11:13;;;;;;;0.70;0.70;;;;;;;4.34;81.84;95956.69;5010977;28;20242;-66
2023/12/28 01:13:38;;;;;;;0.80;0.80;;;;;;;4.33;82.23;95950.66;5011134;28;20212;-66
2023/12/28 01:16:04;;;;;;;0.50;0.50;;;;;;;4.24;82.27;95953.34;5004318;28;20531;-66
2023/12/28 01:18:30;;;;;;;0.63;0.63;;;;;;;4.21;81.93;95940.56;5011811;28;20176;-66
2023/12/28 01:20:55;;;;;;;2.13;2.03;;;;;;;4.35;81.46;95958.31;5011541;28;20537;-65
2023/12/28 01:23:21;;;;;;;0.60;0.60;;;;;;;4.35;81.67;95947.91;5011106;28;20235;-65
2023/12/28 01:25:46;;;;;;;0.50;0.50;;;;;;;4.45;81.32;95949.50;5011807;28;20196;-66
2023/12/28 01:28:12;;;;;;;0.50;0.50;;;;;;;4.42;81.27;95944.56;5011616;28;20283;-66
2023/12/28 01:30:37;;;;;;;0.50;0.50;;;;;;;4.41;81.58;95952.56;5011711;28;20191;-65
2023/12/28 01:33:03;;;;;;;1.17;1.17;;;;;;;4.30;80.96;95934.50;5011924;28;20188;-65
2023/12/28 01:35:29;;;;;;;0.70;0.70;;;;;;;4.48;80.87;95954.44;5011875;28;20584;-65
2023/12/28 01:37:55;;;;;;;0.50;0.50;;;;;;;4.38;81.60;95951.06;5011548;28;20187;-65
2023/12/28 01:40:20;;;;;;;2.20;2.00;;;;;;;4.25;81.91;95936.69;5011555;28;20934;-66
2023/12/28 01:42:46;;;;;;;0.60;0.60;;;;;;;4.11;81.41;95914.56;5011793;28;20556;-66
2023/12/28 01:45:11;;;;;;;0.80;0.80;;;;;;;4.21;81.39;95943.19;5011764;28;20193;-65
2023/12/28 01:47:37;;;;;;;2.73;2.60;;;;;;;4.16;81.50;95935.78;5011679;28;20180;-65
2023/12/28 01:50:06;;;;;;;2.20;2.10;;;;;;;4.32;81.40;95945.59;4994086;28;20168;-66
2023/12/28 01:52:31;;;;;;;0.60;0.60;;;;;;;4.35;81.10;95942.69;5011666;28;20181;-66
2023/12/28 01:54:57;;;;;;;0.90;0.90;;;;;;;4.33;81.44;95949.81;5011418;28;20240;-65
2023/12/28 01:57:22;;;;;;;0.50;0.50;;;;;;;4.11;82.19;95931.03;5011558;28;20259;-66
2023/12/28 01:59:48;;;;;;;1.07;1.07;;;;;;;4.20;82.40;95937.16;5011482;28;20234;-66
2023/12/28 02:02:14;;;;;;;0.60;0.60;;;;;;;4.15;82.16;95937.56;5011462;28;20267;-66
2023/12/28 02:04:40;;;;;;;0.60;0.60;;;;;;;4.13;82.56;95936.91;5011266;28;20199;-66
2023/12/28 02:07:06;;;;;;;2.17;2.00;;;;;;;4.20;82.72;95939.75;5011373;28;20180;-66
2023/12/28 02:09:32;;;;;;;0.50;0.50;;;;;;;4.31;81.83;95943.97;5011089;28;20224;-66
2023/12/28 02:11:57;;;;;;;2.53;2.43;;;;;;;4.30;82.29;95947.53;5010527;28;20176;-66
2023/12/28 02:14:23;;;;;;;1.03;1.00;;;;;;;4.32;81.79;95940.41;5011302;28;20172;-66
2023/12/28 02:17:03;;;;;;;0.53;0.53;;;;;;;4.33;82.45;95937.63;5011259;28;20657;-66
2023/12/28 02:19:35;;;;;;;0.40;0.40;;;;;;;4.29;82.17;95938.88;5010988;28;20669;-66
2023/12/28 02:22:02;;;;;;;0.63;0.63;;;;;;;4.35;81.94;95940.91;5011103;28;20234;-66
2023/12/28 02:24:28;;;;;;;1.83;1.80;;;;;;;4.18;82.46;95916.44;5011195;28;20200;-66
2023/12/28 02:26:53;;;;;;;0.50;0.50;;;;;;;4.18;83.59;95928.66;5011269;28;20287;-65
2023/12/28 02:29:19;;;;;;;0.50;0.50;;;;;;;4.28;83.27;95936.41;5010976;28;20270;-65
2023/12/28 02:32:07;;;;;;;0.50;0.50;;;;;;;4.33;82.69;95942.81;5010925;28;20184;-65
2023/12/28 02:34:38;;;;;;;0.50;0.50;;;;;;;4.10;82.22;95921.56;5009593;28;20516;-65
2023/12/28 02:37:05;;;;;;;0.60;0.60;;;;;;;4.20;82.25;95942.38;4998015;28;20176;-65
2023/12/28 02:39:32;;;;;;;3.43;3.23;;;;;;;4.13;82.16;95930.88;5011061;28;20183;-65
2023/12/28 02:41:58;;;;;;;0.50;0.50;;;;;;;4.12;82.91;95942.25;5011007;28;21012;-65
2023/12/28 02:44:23;;;;;;;0.50;0.50;;;;;;;4.14;82.65;95935.13;5010754;28;20192;-65
2023/12/28 02:46:49;;;;;;;0.50;0.50;;;;;;;4.02;83.32;95942.31;5010743;28;20179;-65
2023/12/28 02:49:15;;;;;;;4.33;4.17;;;;;;;3.98;84.73;95940.16;5010758;28;20226;-65
2023/12/28 02:51:42;;;;;;;1.57;1.53;;;;;;;3.94;85.71;95928.34;5010486;28;20235;-65
2023/12/28 02:54:08;;;;;;;0.50;0.50;;;;;;;3.90;85.80;95940.84;5010743;28;20526;-65
2023/12/28 02:56:33;;;;;;;0.50;0.50;;;;;;;4.08;85.00;95933.91;5010763;28;20186;-65
2023/12/28 02:58:59;;;;;;;0.50;0.50;;;;;;;4.04;84.06;95935.16;5010689;28;20675;-65
2023/12/28 03:01:25;;;;;;;0.50;0.50;;;;;;;4.06;83.47;95933.25;5010678;28;20215;-65
2023/12/28 03:03:50;;;;;;;1.10;1.10;;;;;;;4.11;83.59;95930.19;4996707;28;20169;-66
2023/12/28 03:06:16;;;;;;;0.50;0.50;;;;;;;3.98;83.54;95899.25;4990890;28;20223;-65
2023/12/28 03:08:41;;;;;;;0.40;0.40;;;;;;;4.11;82.77;95925.00;4990774;28;20204;-66
2023/12/28 03:11:07;;;;;;;0.50;0.50;;;;;;;4.03;82.26;95914.47;4991048;28;20188;-65
2023/12/28 03:13:32;;;;;;;3.50;3.40;;;;;;;4.00;82.77;95912.16;4991074;28;20652;-65
2023/12/28 03:15:58;;;;;;;0.97;0.97;;;;;;;3.95;82.65;95912.59;4991235;28;20600;-65
2023/12/28 03:18:23;;;;;;;1.20;1.20;;;;;;;3.78;82.28;95906.34;4990708;28;20187;-65
2023/12/28 03:20:49;;;;;;;0.50;0.50;;;;;;;3.47;83.16;95878.09;4991000;28;20238;-65
2023/12/28 03:23:14;;;;;;;1.80;1.60;;;;;;;3.72;83.19;95917.31;4974453;28;20188;-65
2023/12/28 03:25:40;;;;;;;0.50;0.50;;;;;;;3.75;83.61;95909.25;4994663;28;20211;-65
2023/12/28 03:28:05;;;;;;;0.77;0.77;;;;;;;3.81;83.83;95913.03;4994825;28;20207;-65
2023/12/28 03:30:31;;;;;;;0.63;0.63;;;;;;;3.83;84.17;95908.50;4994909;28;20544;-65
2023/12/28 03:32:56;;;;;;;0.60;0.60;;;;;;;3.70;83.91;95914.06;4994696;28;20201;-65
2023/12/28 03:35:21;;;;;;;11.97;9.83;;;;;;;3.68;83.24;95933.38;4994722;28;20239;-65
2023/12/28 03:37:47;;;;;;;0.50;0.50;;;;;;;3.54;84.38;95929.47;4994319;28;20185;-65
2023/12/28 03:40:13;;;;;;;0.67;0.67;;;;;;;3.68;83.46;95926.41;4994110;28;20534;-65
2023/12/28 03:42:38;;;;;;;0.60;0.60;;;;;;;3.62;84.18;95926.97;4994366;28;20199;-65
2023/12/28 03:45:04;;;;;;;1.37;1.30;;;;;;;3.67;84.03;95931.75;4994073;28;20200;-65
2023/12/28 03:47:30;;;;;;;0.60;0.60;;;;;;;3.74;84.04;95938.00;4994225;28;20177;-65
2023/12/28 03:49:56;;;;;;;0.50;0.50;;;;;;;3.61;84.49;95940.94;4994308;28;20173;-65
2023/12/28 03:52:23;;;;;;;0.83;0.83;;;;;;;3.65;84.49;95938.88;4994236;28;20260;-65
2023/12/28 03:54:48;;;;;;;0.60;0.60;;;;;;;3.63;83.80;95948.63;5011427;28;20169;-65
2023/12/28 03:57:14;;;;;;;0.97;0.97;;;;;;;3.28;83.39;95907.59;5013584;28;20622;-65
2023/12/28 03:59:40;;;;;;;1.00;1.00;;;;;;;3.45;83.89;95942.50;5013890;28;20180;-65
2023/12/28 04:02:05;;;;;;;0.50;0.50;;;;;;;3.45;84.04;95947.69;5013788;28;20968;-65
2023/12/28 04:04:31;;;;;;;0.53;0.53;;;;;;;3.48;83.60;95953.44;5012979;28;20204;-65
2023/12/28 04:06:56;;;;;;;0.50;0.50;;;;;;;3.38;83.28;95947.41;5013339;28;20730;-65
2023/12/28 04:09:22;;;;;;;0.63;0.63;;;;;;;3.35;83.63;95948.53;5012991;28;20592;-65
2023/12/28 04:11:47;;;;;;;1.20;1.13;;;;;;;3.38;83.69;95950.84;5013223;28;20172;-65
2023/12/28 04:14:13;;;;;;;0.50;0.50;;;;;;;3.34;84.02;95944.28;5013107;28;20187;-65
2023/12/28 04:16:38;;;;;;;0.50;0.50;;;;;;;3.28;83.90;95952.66;5013788;28;20690;-65
2023/12/28 04:19:04;;;;;;;1.20;1.20;;;;;;;3.32;83.61;95948.81;5013287;28;20180;-65
2023/12/28 04:21:29;;;;;;;0.70;0.70;;;;;;;3.39;83.06;95943.84;5013305;28;20267;-65
2023/12/28 04:23:55;;;;;;;0.50;0.50;;;;;;;3.30;83.21;95953.31;5012917;28;20183;-65
2023/12/28 04:26:20;;;;;;;0.40;0.40;;;;;;;3.37;82.93;95951.00;5013016;28;20263;-66
2023/12/28 04:28:46;;;;;;;0.50;0.50;;;;;;;3.41;82.90;95950.56;5013007;28;20206;-66
2023/12/28 04:31:11;;;;;;;1.83;1.80;;;;;;;3.44;82.40;95946.06;5013121;28;20184;-66
2023/12/28 04:33:37;;;;;;;0.60;0.60;;;;;;;3.30;82.66;95950.72;5013028;28;20255;-66
2023/12/28 04:36:04;;;;;;;2.03;1.93;;;;;;;3.30;82.87;95942.09;5012406;28;20218;-66
2023/12/28 04:38:30;;;;;;;3.83;2.20;;;;;;;3.32;83.59;95943.59;5012810;28;20283;-66
2023/12/28 04:40:55;;;;;;;3.40;3.20;;;;;;;3.13;84.55;95943.63;5012846;28;20183;-65
2023/12/28 04:43:23;;;;;;;0.50;0.50;;;;;;;3.13;85.44;95943.63;5012832;28;20176;-65
2023/12/28 04:45:49;;;;;;;0.50;0.50;;;;;;;3.14;85.40;95936.63;5012777;28;20197;-65
2023/12/28 04:48:14;;;;;;;2.10;2.00;;;;;;;3.14;84.40;95942.66;5012681;28;20765;-65
2023/12/28 04:50:40;;;;;;;0.60;0.60;;;;;;;3.13;83.80;95942.78;5012782;28;20654;-65
2023/12/28 04:53:05;;;;;;;0.60;0.60;;;;;;;3.09;84.17;95929.25;5012681;28;20173;-65
2023/12/28 04:55:31;;;;;;;0.70;0.70;;;;;;;3.22;83.31;95945.38;5000684;28;20184;-65
2023/12/28 04:57:56;;;;;;;3.23;3.13;;;;;;;3.14;83.42;95945.25;4993017;28;20263;-66
2023/12/28 05:00:22;;;;;;;0.60;0.60;;;;;;;3.17;83.06;95939.78;4975481;28;20189;-65
2023/12/28 05:02:47;;;;;;;0.50;0.50;;;;;;;3.13;82.97;95946.22;4992731;28;20185;-65
2023/12/28 05:05:13;;;;;;;2.47;2.37;;;;;;;3.10;82.65;95949.09;4992451;28;20208;-65
2023/12/28 05:07:38;;;;;;;0.50;0.50;;;;;;;2.93;82.81;95947.19;4992432;28;20169;-65
2023/12/28 05:10:04;;;;;;;0.50;0.50;;;;;;;2.94;83.34;95944.44;4992537;28;20663;-65
2023/12/28 05:12:30;;;;;;;0.67;0.67;;;;;;;3.06;83.66;95944.31;4992639;28;20260;-65
2023/12/28 05:14:55;;;;;;;0.50;0.50;;;;;;;3.08;82.58;95951.03;4992490;28;20256;-65
2023/12/28 05:17:21;;;;;;;5.00;4.80;;;;;;;3.08;82.69;95945.81;4992563;28;20172;-65
2023/12/28 05:19:47;;;;;;;0.90;0.90;;;;;;;2.96;83.07;95929.53;4992423;28;20180;-65
2023/12/28 05:22:12;;;;;;;0.80;0.80;;;;;;;3.10;82.53;95928.31;4992499;28;20181;-65
2023/12/28 05:24:38;;;;;;;0.50;0.50;;;;;;;3.15;82.23;95949.50;4992419;28;20235;-65
2023/12/28 05:27:03;;;;;;;0.50;0.50;;;;;;;3.11;82.96;95942.94;4992353;28;20191;-65
2023/12/28 05:29:29;;;;;;;0.80;0.80;;;;;;;3.12;82.73;95941.16;4992231;28;20212;-65
2023/12/28 05:31:54;;;;;;;1.10;1.10;;;;;;;3.16;82.51;95947.72;4992356;28;20193;-65
2023/12/28 05:34:20;;;;;;;0.50;0.50;;;;;;;3.11;82.95;95937.75;4992355;28;20248;-65
2023/12/28 05:36:46;;;;;;;2.97;2.80;;;;;;;3.19;82.83;95947.47;4992414;28;20280;-66
2023/12/28 05:39:13;;;;;;;3.67;3.53;;;;;;;3.15;82.97;95957.31;4992364;28;20231;-66
2023/12/28 05:41:40;;;;;;;5.40;3.23;;;;;;;3.07;83.28;95953.75;5003058;28;20651;-66
2023/12/28 05:44:06;;;;;;;16.80;15.53;;;;;;;2.94;84.32;95938.44;5011800;28;20234;-66
2023/12/28 05:46:31;;;;;;;2.53;1.50;;;;;;;3.22;83.76;95955.78;5011658;28;20196;-66
2023/12/28 05:48:57;;;;;;;0.80;0.80;;;;;;;3.27;83.54;95964.03;5011745;28;20226;-66
2023/12/28 05:51:22;;;;;;;2.10;2.10;;;;;;;3.24;83.04;95968.66;5011691;28;20172;-66
2023/12/28 05:53:47;;;;;;;6.03;5.60;;;;;;;3.28;83.83;95957.88;5011640;28;20176;-66
2023/12/28 05:56:13;;;;;;;0.73;0.73;;;;;;;3.34;83.52;95965.09;5011664;28;20207;-66
2023/12/28 05:58:38;;;;;;;2.80;2.70;;;;;;;3.32;83.07;95968.78;5011546;28;20172;-66
2023/12/28 06:01:05;;;;;;;0.60;0.60;;;;;;;3.31;83.00;95964.53;5011450;28;20514;-65
2023/12/28 06:03:31;;;;;;;0.50;0.50;;;;;;;3.36;82.53;95975.38;5011455;28;20199;-66
2023/12/28 06:05:56;;;;;;;16.80;15.83;;;;;;;3.28;82.79;95968.28;5011368;28;20691;-67
2023/12/28 06:08:22;;;;;;;1.00;1.00;;;;;;;3.25;82.09;95978.13;5011406;28;20182;-66
2023/12/28 06:10:47;;;;;;;3.17;2.97;;;;;;;3.38;82.30;95973.44;5011185;28;20310;-66
2023/12/28 06:13:13;;;;;;;5.70;5.40;;;;;;;3.28;82.07;95955.25;5011193;28;20180;-65
2023/12/28 06:15:38;;;;;;;1.27;1.27;;;;;;;3.38;82.48;95974.25;5011233;28;20701;-66
2023/12/28 06:18:04;;;;;;;8.43;7.00;;;;;;;3.35;81.81;95974.56;5011002;28;20185;-65
2023/12/28 06:20:30;;;;;;;0.70;0.70;;;;;;;3.36;81.69;95976.19;5011337;28;20556;-66
2023/12/28 06:22:55;;;;;;;3.70;3.53;;;;;;;3.42;81.78;95974.81;5005598;28;20173;-66
2023/12/28 06:25:21;;;;;;;2.07;2.00;;;;;;;3.29;81.88;95949.06;4991422;28;20201;-66
2023/12/28 06:27:46;;;;;;;2.40;2.20;;;;;;;3.45;81.74;95979.75;4991381;28;20209;-66
2023/12/28 06:30:12;;;;;;;5.67;5.40;;;;;;;3.50;82.57;95976.72;4991403;28;20172;-66
2023/12/28 06:32:38;;;;;;;0.70;0.70;;;;;;;3.57;82.48;95981.22;4991358;28;20173;-65
2023/12/28 06:35:04;;;;;;;0.53;0.53;;;;;;;3.60;82.40;95980.13;4991402;28;20200;-65
2023/12/28 06:37:29;;;;;;;0.50;0.50;;;;;;;3.56;82.13;95963.94;4991481;28;20941;-66
2023/12/28 06:39:55;;;;;;;0.87;0.87;;;;;;;3.74;81.57;95984.88;4991295;28;20184;-65
2023/12/28 06:42:20;;;;;;;0.50;0.50;;;;;;;3.80;82.35;95987.75;4991203;28;20187;-66
2023/12/28 06:44:46;;;;;;;1.63;1.63;;;;;;;3.91;82.07;95981.53;4990990;28;20228;-66
2023/12/28 06:47:11;;;;;;;1.23;1.23;;;;;;;4.34;81.92;95975.75;4991107;28;20173;-65
2023/12/28 06:49:37;;;;;;;0.60;0.60;;;;;;;5.29;79.33;95996.13;4991249;28;20222;-65
2023/12/28 06:52:02;;;;;;;0.60;0.60;;;;;;;6.00;76.12;95993.44;4991185;28;20177;-66
2023/12/28 06:54:28;;;;;;;2.37;2.27;;;;;;;5.92;75.03;96001.22;4991235;28;20699;-66
2023/12/28 06:56:53;;;;;;;4.73;4.43;;;;;;;6.16;74.17;95979.63;4990964;28;20177;-66
2023/12/28 06:59:19;;;;;;;16.40;7.17;;;;;;;6.59;73.12;95994.38;4990485;28;20264;-66
2023/12/28 07:01:45;;;;;;;3.63;3.43;;;;;;;7.55;71.67;96000.78;4973458;28;20675;-66
2023/12/28 07:04:12;;;;;;;2.57;2.17;;;;;;;8.11;68.57;95997.28;4991095;28;20208;-66
2023/12/28 07:06:37;;;;;;;10.93;8.70;;;;;;;9.12;65.41;96010.53;4990933;28;20177;-66
2023/12/28 07:09:04;;;;;;;6.40;6.03;;;;;;;9.51;62.09;96014.91;4990824;28;20291;-67
2023/12/28 07:11:29;;;;;;;5.40;5.10;;;;;;;9.53;61.53;96003.19;4989486;28;20177;-67
2023/12/28 07:13:55;;;;;;;8.43;7.70;;;;;;;9.43;62.06;96003.44;4990099;28;20256;-66
2023/12/28 07:16:20;;;;;;;3.80;3.50;;;;;;;9.89;60.74;96007.84;4991305;28;20185;-67
2023/12/28 07:18:46;;;;;;;2.67;2.47;;;;;;;9.65;61.40;95990.47;4990927;28;20197;-67
2023/12/28 07:21:11;;;;;;;9.10;4.77;;;;;;;9.99;60.30;96013.69;4990889;28;20188;-67
2023/12/28 07:23:38;;;;;;;6.70;6.07;;;;;;;10.26;60.50;96009.66;4990731;28;20182;-67
2023/12/28 07:26:06;;;;;;;4.70;4.40;;;;;;;10.69;58.94;96008.88;4990727;28;20193;-67
2023/12/28 07:28:32;;;;;;;3.03;2.83;;;;;;;10.17;59.07;95982.59;4973269;28;20184;-67
2023/12/28 07:30:57;;;;;;;1.60;1.53;;;;;;;10.03;59.45;96009.72;4990669;28;20174;-67
2023/12/28 07:33:23;;;;;;;2.20;2.10;;;;;;;9.37;61.96;96009.41;4990598;28;20173;-69
2023/12/28 07:35:48;;;;;;;1.27;1.27;;;;;;;9.68;62.41;96013.78;4990743;28;20589;-67
2023/12/28 07:38:14;;;;;;;0.87;0.87;;;;;;;10.61;59.94;96019.50;4990443;28;20181;-67
2023/12/28 07:40:39;;;;;;;1.93;1.83;;;;;;;11.64;56.76;96008.72;4990615;28;20169;-67
2023/12/28 07:43:05;;;;;;;3.40;3.10;;;;;;;12.93;52.03;96005.59;4990390;28;20227;-67
2023/12/28 07:45:31;;;;;;;3.23;1.77;;;;;;;14.02;49.24;96011.56;4990373;28;20241;-67
2023/12/28 07:47:58;;;;;;;2.93;1.93;;;;;;;14.83;46.41;96009.44;4990784;28;20177;-67
2023/12/28 07:50:24;;;;;;;2.95;2.80;;;;;;;14.97;45.64;96010.22;4990747;28;20184;-67
2023/12/28 07:52:50;;;;;;;2.17;2.08;;;;;;;14.53;45.47;96008.31;4990399;28;20173;-67
2023/12/28 07:55:16;;;;;;;4.22;3.83;;;;;;;14.44;46.02;96015.66;4990364;28;20169;-67
2023/12/28 07:57:42;;;;;;;2.53;2.42;;;;;;;14.92;45.54;96018.81;4990026;28;20177;-65
2023/12/28 08:00:08;;;;;;;4.95;2.35;;;;;;;15.61;43.77;96017.31;4990144;28;20251;-65
2023/12/28 08:02:33;;;;;;;0.70;0.70;;;;;;;16.67;41.74;96012.00;4990562;28;20328;-65
2023/12/28 08:04:59;;;;;;;2.90;2.78;;;;;;;17.40;40.17;96012.78;4990216;28;20201;-66
2023/12/28 08:07:24;;;;;;;3.38;3.17;;;;;;;18.28;38.11;96007.63;4989916;28;20172;-66
2023/12/28 08:09:50;;;;;;;2.00;1.70;;;;;;;18.77;36.47;96003.72;4990028;28;20213;-66
2023/12/28 08:12:16;;;;;;;1.02;1.02;;;;;;;19.04;36.82;96001.34;4993324;28;20185;-65
2023/12/28 08:14:42;;;;;;;0.70;0.70;;;;;;;19.47;34.63;96000.06;4993425;28;20245;-66
2023/12/28 08:17:08;;;;;;;4.07;2.60;;;;;;;19.57;34.22;95998.44;4993550;28;20173;-65
2023/12/28 08:19:33;;;;;;;0.75;0.75;;;;;;;19.82;34.14;96000.78;4993264;28;20208;-65
2023/12/28 08:21:59;;;;;;;2.65;2.45;;;;;;;20.13;34.31;95996.78;4993382;28;20185;-65
2023/12/28 08:24:24;;;;;;;3.17;2.40;;;;;;;19.73;34.88;95988.84;4993268;28;20561;-65
2023/12/28 08:26:50;;;;;;;2.15;2.05;;;;;;;19.77;34.88;95986.50;4993151;28;20184;-65
2023/12/28 08:29:15;;;;;;;1.73;1.63;;;;;;;20.38;34.36;95991.06;4992979;28;20180;-64
2023/12/28 08:31:41;;;;;;;1.70;1.63;;;;;;;20.24;34.50;95993.19;4993287;28;20169;-65
2023/12/28 08:34:06;;;;;;;0.80;0.80;;;;;;;19.40;35.75;95999.41;4992906;28;20268;-65
2023/12/28 08:36:31;;;;;;;2.40;2.30;;;;;;;19.40;35.65;95991.41;4992821;28;20173;-66
2023/12/28 08:38:57;;;;;;;0.52;0.52;;;;;;;19.37;35.65;95990.00;4992997;28;20177;-65
2023/12/28 08:41:26;;;;;;;0.50;0.50;;;;;;;18.51;36.30;95990.03;4992764;28;20264;-65
2023/12/28 08:43:56;;;;;;;3.80;2.20;;;;;;;17.19;39.37;95990.13;4992718;28;20181;-65
2023/12/28 08:46:24;;;;;;;1.83;1.70;;;;;;;17.06;39.99;95986.81;4999487;28;20211;-65
2023/12/28 08:48:50;;;;;;;1.40;1.40;;;;;;;16.73;40.31;95984.53;4992937;28;20200;-65
2023/12/28 08:51:16;;;;;;;1.95;1.85;;;;;;;15.77;43.11;95953.06;4992644;28;20203;-65
2023/12/28 08:53:41;;;;;;;0.50;0.50;;;;;;;15.70;44.04;95970.91;4992505;28;20174;-66
2023/12/28 08:56:17;;;;;;;26.05;15.77;;;;;;;15.59;43.30;95966.25;4992623;28;20680;-66
2023/12/28 08:58:42;;;;;;;1.38;1.02;;;;;;;15.29;42.40;95961.53;4995063;28;20510;-67
2023/12/28 09:01:15;;;;;;;0.70;0.70;;;;;;;14.87;44.05;95951.53;5002393;28;20199;-67
2023/12/28 09:03:40;;;;;;;0.63;0.63;;;;;;;14.03;45.44;95962.06;5002452;28;20173;-67
2023/12/28 09:06:06;;;;;;;2.53;1.77;;;;;;;13.66;46.81;95969.63;5001844;28;20200;-67
2023/12/28 09:08:32;;;;;;;3.43;1.90;;;;;;;12.82;48.52;95961.22;4997937;28;20169;-67
2023/12/28 09:10:57;;;;;;;5.47;5.07;;;;;;;13.24;48.14;95952.22;4991408;28;20305;-68
2023/12/28 09:13:22;;;;;;;5.37;4.97;;;;;;;13.17;48.93;95936.34;5008239;28;20180;-66
2023/12/28 09:15:48;;;;;;;1.60;1.50;;;;;;;12.97;49.75;95947.88;4996967;28;20263;-67
2023/12/28 09:18:14;;;;;;;2.63;2.43;;;;;;;12.71;50.02;95938.00;5002006;28;20192;-66
2023/12/28 09:20:40;;;;;;;1.20;1.10;;;;;;;11.92;51.94;95938.38;5003033;28;20161;-66
2023/12/28 09:23:05;;;;;;;0.50;0.50;;;;;;;12.43;51.67;95935.44;4995343;28;20545;-67
2023/12/28 09:25:31;;;;;;;2.30;1.63;;;;;;;13.07;51.06;95932.41;5006938;28;20204;-68
2023/12/28 09:27:56;;;;;;;1.00;1.00;;;;;;;13.44;49.33;95928.47;4997856;28;20189;-67
2023/12/28 09:30:22;;;;;;;2.27;1.53;;;;;;;13.57;48.20;95912.63;5001091;28;20176;-67
2023/12/28 09:32:47;;;;;;;1.47;1.47;;;;;;;13.74;47.60;95920.97;5003558;28;20191;-67
2023/12/28 09:35:13;;;;;;;0.50;0.50;;;;;;;13.58;46.95;95922.16;4994635;28;20649;-67
2023/12/28 09:37:38;;;;;;;1.03;1.03;;;;;;;13.67;47.12;95902.41;5006891;28;20166;-67
2023/12/28 09:40:04;;;;;;;0.50;0.50;;;;;;;13.68;46.94;95906.69;4997629;28;20780;-67
2023/12/28 09:42:45;;;;;;;0.70;0.70;;;;;;;14.02;47.59;95896.88;4999814;28;20169;-67
2023/12/28 09:45:11;;;;;;;1.13;1.03;;;;;;;13.89;47.51;95895.91;5007079;28;20256;-67
2023/12/28 09:47:37;;;;;;;0.60;0.60;;;;;;;13.77;46.93;95891.41;4993871;28;20168;-68
2023/12/28 09:50:03;;;;;;;0.67;0.67;;;;;;;13.29;48.26;95888.97;5003565;28;20180;-68
2023/12/28 09:52:28;;;;;;;1.07;1.07;;;;;;;13.55;49.63;95894.28;5001292;28;20183;-67
2023/12/28 09:54:54;;;;;;;0.93;0.93;;;;;;;13.51;48.51;95886.94;4995949;28;20279;-67
2023/12/28 09:57:20;;;;;;;0.70;0.70;;;;;;;13.36;49.47;95883.69;5006980;28;20180;-67
2023/12/28 09:59:45;;;;;;;1.57;1.57;;;;;;;13.29;50.41;95873.13;4995421;28;20176;-66
2023/12/28 10:02:11;;;;;;;5.30;2.50;;;;;;;13.40;50.13;95869.06;5001392;28;20173;-67
2023/12/28 10:04:37;;;;;;;2.17;2.10;;;;;;;13.36;50.26;95867.81;5001972;28;21653;-66
2023/12/28 10:07:03;;;;;;;0.70;0.70;;;;;;;12.97;49.98;95829.75;4994986;28;20177;-66
2023/12/28 10:09:30;;;;;;;2.30;2.20;;;;;;;13.11;50.63;95860.44;5006088;28;20247;-66
2023/12/28 10:11:56;;;;;;;3.23;3.13;;;;;;;13.13;50.26;95850.53;4996334;28;20615;-67
2023/12/28 10:14:21;;;;;;;1.73;1.63;;;;;;;13.15;50.54;95860.88;5000105;28;20725;-67
2023/12/28 10:16:48;;;;;;;2.07;1.23;;;;;;;12.87;50.78;95833.78;5003788;28;20260;-66
2023/12/28 10:19:13;;;;;;;2.73;2.57;;;;;;;12.79;51.77;95840.06;4976030;28;20212;-66
2023/12/28 10:21:43;;;;;;;2.53;2.43;;;;;;;12.86;51.67;95840.88;5005792;28;20694;-66
2023/12/28 10:24:10;;;;;;;0.93;0.93;;;;;;;12.62;51.67;95825.59;4998278;28;20175;-67
2023/12/28 10:26:36;;;;;;;3.23;3.03;;;;;;;12.64;52.50;95827.00;4997719;28;20197;-67
2023/12/28 10:29:03;;;;;;;0.80;0.80;;;;;;;12.50;52.65;95816.59;5004884;28;20556;-67
2023/12/28 10:31:29;;;;;;;2.57;2.47;;;;;;;12.33;53.17;95806.41;4993555;28;20181;-67
2023/12/28 10:33:58;;;;;;;2.07;1.97;;;;;;;12.37;54.10;95806.81;5002667;28;20672;-67
2023/12/28 10:36:24;;;;;;;3.97;3.00;;;;;;;12.35;53.76;95801.75;4999500;28;20713;-68
2023/12/28 10:38:53;;;;;;;0.80;0.80;;;;;;;12.31;54.00;95799.69;4978972;28;20193;-67
2023/12/28 10:41:20;;;;;;;1.43;1.43;;;;;;;12.40;54.84;95793.22;5005598;28;20173;-67
2023/12/28 10:43:50;;;;;;;0.40;0.40;;;;;;;12.34;54.63;95775.53;4994399;28;20172;-67
2023/12/28 10:46:39;;;;;;;1.63;1.63;;;;;;;12.33;53.05;95782.63;5000829;28;20209;-67
2023/12/28 10:49:16;;;;;;;0.60;0.60;;;;;;;12.12;54.01;95758.19;5005394;28;20226;-67
2023/12/28 10:51:43;;;;;;;7.47;4.07;;;;;;;11.95;54.36;95773.53;5001974;28;20177;-67
2023/12/28 10:54:15;;;;;;;1.93;1.93;;;;;;;11.88;54.48;95770.88;5001702;28;20267;-67
2023/12/28 10:56:52;;;;;;;0.97;0.97;;;;;;;11.73;54.90;95755.16;5009640;28;20737;-67
2023/12/28 10:59:34;;;;;;;1.23;1.23;;;;;;;11.84;55.38;95769.66;5009890;28;20176;-67
2023/12/28 11:02:02;;;;;;;1.63;1.57;;;;;;;11.87;55.05;95768.44;5009583;28;20176;-67
2023/12/28 11:04:49;;;;;;;0.60;0.60;;;;;;;11.86;55.30;95757.06;5009178;28;20234;-67
2023/12/28 11:07:18;;;;;;;2.33;2.10;;;;;;;11.76;55.19;95729.44;5010064;28;20569;-67
2023/12/28 11:09:44;;;;;;;2.30;2.20;;;;;;;12.06;55.10;95739.50;5009870;28;20643;-67
2023/12/28 11:12:12;;;;;;;0.40;0.40;;;;;;;12.00;54.67;95726.28;5010054;28;20172;-67
2023/12/28 11:14:42;;;;;;;3.03;2.83;;;;;;;11.96;54.81;95717.13;5010350;28;20176;-67
2023/12/28 11:17:10;;;;;;;0.50;0.50;;;;;;;12.00;55.25;95734.22;5010232;28;20177;-66
2023/12/28 11:19:36;;;;;;;0.40;0.40;;;;;;;11.93;55.49;95736.81;5009825;28;20234;-67
2023/12/28 11:22:03;;;;;;;2.97;2.43;;;;;;;12.01;55.79;95730.56;5010397;28;20168;-67
2023/12/28 11:24:30;;;;;;;0.90;0.90;;;;;;;12.05;56.40;95715.94;5010321;28;20172;-67
2023/12/28 11:26:56;;;;;;;0.50;0.50;;;;;;;11.88;55.51;95701.47;5010250;28;20176;-67
2023/12/28 11:29:23;;;;;;;3.60;3.30;;;;;;;11.86;55.63;95685.84;5010277;28;20671;-67
2023/12/28 11:31:57;;;;;;;0.50;0.50;;;;;;;12.08;55.91;95708.44;5009681;28;20239;-67
2023/12/28 11:34:26;;;;;;;0.40;0.40;;;;;;;12.15;55.27;95707.66;5010319;28;20602;-67